»·PEaware :: QXE2812 KTUS-KDEN

QXE2812 :: KTUS-KDEN

FLIGHT INFORMATION

Flight Status: Arrived
Operator:
Horizon Air
More flights by this operator :: More flights under this callsign
Pilot: Matthew M. (8235)
Aircraft: DEHAVILLAND DASH 8 400
(DH8D)
More flights by this aircraft type
Origin: KTUS Tucson Intl
United States
Destination: KDEN Denver Intl
United States
More flights between these airports :: More routes between these airports
Route: +TUS8 PXR J44 RSK LARKS2
File this flight plan on PilotEdge
Remarks:
Altitude:
(Current/Filed)
23,000ft
Speed:
(Current/Filed)
331kts
Departed: 22-Aug-20 12:16 PM
Arrived: 22-Aug-20 02:17 PM
Distance/Time
Traveled:
555nm/2:01
Distance/Time
To Go:
Arrived

Flight Plot

Page will automatically refresh every two minutes.

Flight plan parsing failed; only flown route is shown


Map Options




Map Legend


Flown Route
Filed Route
Departure Airport
Arrival Airport
Navaid (VOR, NDB)
Fix

Horizontal Profiles

Position Reports

Time Latitude Longitude Heading Altitude Ground
Speed
22-Aug-20 11:51 32.119692 -110.939120 68 2650ft 0kts
22-Aug-20 11:52 32.119692 -110.939120 68 2650ft 0kts
22-Aug-20 11:53 32.119692 -110.939120 68 2650ft 0kts
22-Aug-20 11:54 32.119692 -110.939120 68 2650ft 0kts
22-Aug-20 11:55 32.119692 -110.939120 68 2650ft 0kts
22-Aug-20 11:56 32.119692 -110.939120 68 2650ft 0kts
22-Aug-20 11:57 32.119692 -110.939120 68 2650ft 0kts
22-Aug-20 11:58 32.119692 -110.939120 68 2650ft 0kts
22-Aug-20 11:59 32.119692 -110.939120 68 2650ft 0kts
22-Aug-20 12:00 32.119692 -110.939120 68 2650ft 0kts
22-Aug-20 12:01 32.119692 -110.939120 68 2650ft 0kts
22-Aug-20 12:02 32.119692 -110.939120 68 2650ft 0kts
22-Aug-20 12:03 32.119692 -110.939120 68 2650ft 0kts
22-Aug-20 12:04 32.119692 -110.939120 68 2650ft 0kts
22-Aug-20 12:05 32.119667 -110.939199 68 2650ft 2kts
22-Aug-20 12:06 32.119500 -110.939729 71 2650ft 0kts
22-Aug-20 12:07 32.119084 -110.939759 151 2650ft 7kts
22-Aug-20 12:08 32.117061 -110.938807 136 2650ft 18kts
22-Aug-20 12:09 32.111853 -110.932667 133 2650ft 25kts
22-Aug-20 12:10 32.107054 -110.927062 136 2650ft 29kts
22-Aug-20 12:11 32.102469 -110.922483 237 2650ft 8kts
22-Aug-20 12:12 32.102362 -110.923254 317 2650ft 0kts
22-Aug-20 12:13 32.102362 -110.923254 317 2650ft 0kts
22-Aug-20 12:14 32.102362 -110.923254 317 2650ft 0kts
22-Aug-20 12:15 32.112519 -110.935138 313 2651ft 139kts
22-Aug-20 12:16 32.146685 -110.964361 331 4248ft 160kts
22-Aug-20 12:17 32.190932 -110.990714 330 5977ft 193kts
22-Aug-20 12:18 32.239346 -111.026626 325 7427ft 218kts
22-Aug-20 12:19 32.292132 -111.067826 326 8872ft 232kts
22-Aug-20 12:20 32.346313 -111.110336 326 10264ft 240kts
22-Aug-20 12:21 32.398251 -111.151476 327 12129ft 221kts
22-Aug-20 12:22 32.449342 -111.191542 328 13447ft 234kts
22-Aug-20 12:23 32.502102 -111.232622 327 14577ft 249kts
22-Aug-20 12:24 32.557716 -111.276006 327 15568ft 259kts
22-Aug-20 12:25 32.615186 -111.320951 329 16514ft 269kts
22-Aug-20 12:26 32.679156 -111.305834 35 17333ft 264kts
22-Aug-20 12:27 32.740148 -111.259857 33 18112ft 270kts
22-Aug-20 12:28 32.801188 -111.214409 33 18870ft 271kts
22-Aug-20 12:29 32.860466 -111.169985 33 19608ft 271kts
22-Aug-20 12:30 32.920436 -111.125180 33 20357ft 269kts
22-Aug-20 12:31 32.982631 -111.078511 33 20959ft 273kts
22-Aug-20 12:32 33.041846 -111.033933 33 21415ft 276kts
22-Aug-20 12:33 33.105527 -110.985726 33 21904ft 276kts
22-Aug-20 12:34 33.166114 -110.940071 33 22372ft 277kts
22-Aug-20 12:35 33.228145 -110.893370 33 22845ft 276kts
22-Aug-20 12:36 33.291973 -110.845072 33 22994ft 289kts
22-Aug-20 12:37 33.359274 -110.794150 33 22995ft 302kts
22-Aug-20 12:38 33.427075 -110.742729 33 23015ft 306kts
22-Aug-20 12:39 33.496521 -110.689896 32 23055ft 312kts
22-Aug-20 12:40 33.567574 -110.635832 33 23112ft 317kts
22-Aug-20 12:41 33.637637 -110.582407 32 23130ft 321kts
22-Aug-20 12:42 33.709844 -110.527118 32 23148ft 323kts
22-Aug-20 12:43 33.782222 -110.471698 32 23166ft 325kts
22-Aug-20 12:44 33.853445 -110.417057 32 23184ft 326kts
22-Aug-20 12:45 33.926273 -110.361083 32 23210ft 323kts
22-Aug-20 12:46 33.996691 -110.306848 32 23220ft 325kts
22-Aug-20 12:47 34.068169 -110.251680 32 23237ft 326kts
22-Aug-20 12:48 34.139728 -110.196387 32 23251ft 327kts
22-Aug-20 12:49 34.213342 -110.139369 32 23264ft 327kts
22-Aug-20 12:50 34.285749 -110.083176 32 23267ft 328kts
22-Aug-20 12:51 34.359408 -110.025893 32 23263ft 328kts
22-Aug-20 12:52 34.431454 -109.969722 32 23247ft 329kts
22-Aug-20 12:53 34.502203 -109.914393 32 23226ft 329kts
22-Aug-20 12:54 34.575083 -109.857340 32 23220ft 328kts
22-Aug-20 12:55 34.645879 -109.801804 32 23216ft 328kts
22-Aug-20 12:56 34.718735 -109.744486 32 23217ft 325kts
22-Aug-20 12:57 34.786131 -109.691381 32 23218ft 323kts
22-Aug-20 12:58 34.860250 -109.632889 32 23210ft 325kts
22-Aug-20 12:59 34.932296 -109.575858 32 23210ft 326kts
22-Aug-20 13:00 35.004261 -109.518795 32 23213ft 326kts
22-Aug-20 13:01 35.076141 -109.461717 32 23226ft 326kts
22-Aug-20 13:02 35.147464 -109.404965 32 23236ft 326kts
22-Aug-20 13:03 35.219680 -109.347303 32 23244ft 326kts
22-Aug-20 13:04 35.291950 -109.289544 32 23258ft 322kts
22-Aug-20 13:05 35.363435 -109.232290 32 23257ft 324kts
22-Aug-20 13:06 35.435201 -109.174714 32 23261ft 325kts
22-Aug-20 13:07 35.503589 -109.119724 32 23263ft 326kts
22-Aug-20 13:08 35.572754 -109.064050 32 23264ft 326kts
22-Aug-20 13:09 35.646510 -109.004488 32 23255ft 326kts
22-Aug-20 13:10 35.719530 -108.945393 32 23246ft 327kts
22-Aug-20 13:11 35.792343 -108.886330 32 23243ft 327kts
22-Aug-20 13:13 35.864087 -108.827921 32 23241ft 327kts
22-Aug-20 13:14 35.934221 -108.770793 32 23238ft 327kts
22-Aug-20 13:15 36.002976 -108.714671 32 23228ft 328kts
22-Aug-20 13:16 36.071151 -108.658750 32 23227ft 324kts
22-Aug-20 13:17 36.140849 -108.601633 32 23207ft 325kts
22-Aug-20 13:18 36.212532 -108.542796 32 23194ft 326kts
22-Aug-20 13:19 36.279846 -108.487422 32 23189ft 324kts
22-Aug-20 13:20 36.354078 -108.426250 32 23181ft 330kts
22-Aug-20 13:21 36.432150 -108.361782 32 23166ft 345kts
22-Aug-20 13:22 36.506903 -108.299877 32 23153ft 337kts
22-Aug-20 13:23 36.581746 -108.237708 32 23145ft 334kts
22-Aug-20 13:24 36.657385 -108.174748 32 23148ft 328kts
22-Aug-20 13:25 36.733010 -108.111710 32 23144ft 326kts
22-Aug-20 13:26 36.806780 -108.047002 35 23149ft 327kts
22-Aug-20 13:27 36.878288 -107.981284 34 23171ft 325kts
22-Aug-20 13:28 36.949859 -107.916330 34 23200ft 326kts
22-Aug-20 13:28 37.011106 -107.860685 34 23227ft 327kts
22-Aug-20 13:29 37.084715 -107.793664 34 23249ft 328kts
22-Aug-20 13:31 37.170721 -107.715172 35 23257ft 329kts
22-Aug-20 13:32 37.243535 -107.648570 35 23264ft 330kts
22-Aug-20 13:32 37.304671 -107.592465 35 23287ft 330kts
22-Aug-20 13:33 37.377971 -107.525075 35 23354ft 331kts
22-Aug-20 13:34 37.451467 -107.457366 35 23400ft 332kts
22-Aug-20 13:35 37.524396 -107.389998 34 23353ft 335kts
22-Aug-20 13:36 37.593737 -107.325765 35 23356ft 335kts
22-Aug-20 13:37 37.666810 -107.257874 35 23364ft 336kts
22-Aug-20 13:38 37.742288 -107.187751 35 23436ft 350kts
22-Aug-20 13:39 37.822847 -107.112334 35 23521ft 359kts
22-Aug-20 13:40 37.901354 -107.039017 34 23606ft 337kts
22-Aug-20 13:41 37.973806 -106.971089 34 23508ft 325kts
22-Aug-20 13:42 38.045997 -106.903165 34 23450ft 330kts
22-Aug-20 13:43 38.114779 -106.838365 34 23528ft 330kts
22-Aug-20 13:44 38.187811 -106.769287 34 23479ft 334kts
22-Aug-20 13:45 38.261284 -106.699444 34 23495ft 335kts
22-Aug-20 13:46 38.334868 -106.629654 34 23519ft 336kts
22-Aug-20 13:47 38.407237 -106.560699 34 23577ft 335kts
22-Aug-20 13:48 38.481226 -106.489963 34 23668ft 334kts
22-Aug-20 13:49 38.543027 -106.403310 49 23734ft 337kts
22-Aug-20 13:50 38.599879 -106.312344 63 23722ft 342kts
22-Aug-20 13:51 38.595691 -106.195468 99 23603ft 350kts
22-Aug-20 13:52 38.580123 -106.074888 98 23447ft 354kts
22-Aug-20 13:53 38.578720 -105.954644 60 23380ft 347kts
22-Aug-20 13:54 38.654871 -105.906897 3 23377ft 333kts
22-Aug-20 13:55 38.745450 -105.894526 4 23375ft 329kts
22-Aug-20 13:56 38.832584 -105.881676 4 23379ft 328kts
22-Aug-20 13:57 38.913901 -105.838369 46 22570ft 349kts
22-Aug-20 13:58 38.974144 -105.744533 48 21359ft 359kts
22-Aug-20 13:59 39.035367 -105.650767 48 20185ft 361kts
22-Aug-20 14:00 39.096726 -105.555383 48 18970ft 358kts
22-Aug-20 14:01 39.158132 -105.460045 48 17702ft 353kts
22-Aug-20 14:02 39.217358 -105.367788 48 16294ft 351kts
22-Aug-20 14:03 39.274374 -105.278583 49 15429ft 335kts
22-Aug-20 14:04 39.332195 -105.187851 49 15244ft 328kts
22-Aug-20 14:05 39.380115 -105.091378 77 14755ft 337kts
22-Aug-20 14:06 39.395565 -104.977270 78 13815ft 337kts
22-Aug-20 14:07 39.405717 -104.864132 88 12378ft 333kts
22-Aug-20 14:08 39.406689 -104.749987 87 10244ft 326kts
22-Aug-20 14:09 39.442124 -104.659129 19 10075ft 300kts
22-Aug-20 14:10 39.522408 -104.665093 358 10043ft 293kts
22-Aug-20 14:11 39.600683 -104.663151 359 9451ft 303kts
22-Aug-20 14:12 39.681539 -104.662431 359 8062ft 260kts
22-Aug-20 14:13 39.744406 -104.661733 0 7091ft 205kts
22-Aug-20 14:14 39.796642 -104.661077 2 6025ft 171kts
22-Aug-20 14:15 39.841364 -104.660424 1 5439ft 118kts
22-Aug-20 14:16 39.848660 -104.661232 331 5438ft 6kts
22-Aug-20 14:17 39.852097 -104.662433 359 5438ft 13kts
22-Aug-20 14:18 39.855793 -104.663165 269 5438ft 16kts
22-Aug-20 14:19 39.855893 -104.668167 268 5438ft 6kts
22-Aug-20 14:20 39.854813 -104.670647 179 5438ft 12kts
22-Aug-20 14:21 39.854254 -104.670646 179 5438ft 0kts
22-Aug-20 14:22 39.854254 -104.670646 179 5438ft 0kts
22-Aug-20 14:23 39.854254 -104.670646 179 5438ft 0kts

Navigation Log

Ident Type
Flight plan parsing failed, navigation log unavailable